Time;durP1;ratioP1;P1;durP2;ratioP2;P2;SDS_P1;SDS_P2;PMS_P1;PMS_P2;Temp;Humidity;BMP_temperature;BMP_pressure;BME280_temperature;BME280_humidity;BME280_pressure;Samples;Min_cycle;Max_cycle;Signal;HPM_P1;HPM_P2
2023/12/24 00:02:10;;;;;;;11.65;3.20;;;;;;;;;;5051626;28;20045;-71
2023/12/24 00:04:36;;;;;;;15.13;3.90;;;;;;;;;;5048056;28;20052;-71
2023/12/24 00:07:02;;;;;;;14.93;3.83;;;;;;;;;;5049724;28;20550;-71
2023/12/24 00:09:28;;;;;;;9.20;3.13;;;;;;;;;;5050548;28;20062;-71
2023/12/24 00:11:54;;;;;;;14.25;3.63;;;;;;;;;;5051324;28;20045;-71
2023/12/24 00:14:20;;;;;;;13.82;3.25;;;;;;;;;;5051766;28;20095;-71
2023/12/24 00:16:46;;;;;;;13.27;3.60;;;;;;;;;;5049826;28;20052;-71
2023/12/24 00:19:12;;;;;;;9.00;3.17;;;;;;;;;;5049289;28;20116;-72
2023/12/24 00:21:38;;;;;;;15.35;3.38;;;;;;;;;;5051339;28;20043;-72
2023/12/24 00:24:04;;;;;;;14.38;3.45;;;;;;;;;;5049758;28;20033;-71
2023/12/24 00:26:31;;;;;;;12.60;3.05;;;;;;;;;;5046888;28;20040;-71
2023/12/24 00:28:57;;;;;;;15.25;3.63;;;;;;;;;;5051056;28;20041;-71
2023/12/24 00:31:23;;;;;;;14.38;3.90;;;;;;;;;;5050385;28;20052;-71
2023/12/24 00:33:49;;;;;;;15.50;3.45;;;;;;;;;;5044555;28;20120;-71
2023/12/24 00:36:15;;;;;;;12.57;2.70;;;;;;;;;;5051506;28;20044;-71
2023/12/24 00:38:41;;;;;;;11.48;3.15;;;;;;;;;;5050886;28;20399;-71
2023/12/24 00:41:07;;;;;;;10.02;3.50;;;;;;;;;;5049449;28;20124;-71
2023/12/24 00:43:33;;;;;;;17.35;4.20;;;;;;;;;;5049385;28;20458;-71
2023/12/24 00:45:59;;;;;;;14.75;3.35;;;;;;;;;;5050909;28;20042;-71
2023/12/24 00:48:25;;;;;;;12.80;3.13;;;;;;;;;;5050350;28;20566;-71
2023/12/24 00:50:51;;;;;;;9.90;3.33;;;;;;;;;;5051061;28;20155;-71
2023/12/24 00:53:17;;;;;;;13.82;2.97;;;;;;;;;;5050597;28;20146;-71
2023/12/24 00:55:43;;;;;;;11.90;2.85;;;;;;;;;;5049489;28;20052;-71
2023/12/24 00:58:09;;;;;;;11.00;3.20;;;;;;;;;;5050624;28;20122;-71
2023/12/24 01:00:35;;;;;;;9.57;2.88;;;;;;;;;;5052662;28;20032;-71
2023/12/24 01:03:01;;;;;;;15.35;3.70;;;;;;;;;;5055114;28;20044;-71
2023/12/24 01:05:27;;;;;;;16.33;3.25;;;;;;;;;;5053258;28;20513;-71
2023/12/24 01:07:53;;;;;;;12.75;3.38;;;;;;;;;;5053640;28;20127;-71
2023/12/24 01:10:19;;;;;;;17.25;3.42;;;;;;;;;;5054288;28;20032;-71
2023/12/24 01:12:45;;;;;;;10.63;3.25;;;;;;;;;;5053834;28;20091;-71
2023/12/24 01:15:11;;;;;;;15.98;3.75;;;;;;;;;;5053056;28;20039;-71
2023/12/24 01:17:37;;;;;;;13.82;3.33;;;;;;;;;;5048800;28;20136;-71
2023/12/24 01:20:11;;;;;;;13.30;3.50;;;;;;;;;;5053853;28;20086;-71
2023/12/24 01:22:37;;;;;;;14.13;3.65;;;;;;;;;;5053761;28;20037;-71
2023/12/24 01:25:03;;;;;;;13.85;3.53;;;;;;;;;;5054853;28;20122;-71
2023/12/24 01:27:29;;;;;;;11.65;2.88;;;;;;;;;;5045956;28;20075;-70
2023/12/24 01:29:55;;;;;;;13.23;3.53;;;;;;;;;;5054771;28;20040;-70
2023/12/24 01:32:21;;;;;;;12.32;3.30;;;;;;;;;;5054197;28;20036;-71
2023/12/24 01:34:47;;;;;;;12.30;3.30;;;;;;;;;;5054816;28;20494;-71
2023/12/24 01:37:13;;;;;;;10.13;3.10;;;;;;;;;;5053538;28;20049;-70
2023/12/24 01:39:39;;;;;;;11.02;3.25;;;;;;;;;;5054122;28;20041;-72
2023/12/24 01:42:05;;;;;;;13.63;2.85;;;;;;;;;;5052712;28;20063;-71
2023/12/24 01:44:31;;;;;;;16.58;3.53;;;;;;;;;;5054215;28;20127;-71
2023/12/24 01:46:58;;;;;;;8.70;3.50;;;;;;;;;;5054101;28;20128;-71
2023/12/24 01:49:24;;;;;;;7.75;2.95;;;;;;;;;;5054357;28;20086;-71
2023/12/24 01:51:50;;;;;;;7.88;2.90;;;;;;;;;;5054344;28;20120;-71
2023/12/24 01:54:16;;;;;;;9.73;3.10;;;;;;;;;;5054470;28;20134;-70
2023/12/24 01:56:42;;;;;;;10.07;2.80;;;;;;;;;;5052377;28;20052;-71
2023/12/24 01:59:09;;;;;;;10.90;2.78;;;;;;;;;;5054095;28;20041;-71
2023/12/24 02:01:35;;;;;;;16.40;2.97;;;;;;;;;;5053863;28;20094;-71
2023/12/24 02:04:01;;;;;;;10.98;2.50;;;;;;;;;;5054214;28;20045;-71
2023/12/24 02:06:28;;;;;;;11.80;2.10;;;;;;;;;;5053637;28;20033;-71
2023/12/24 02:08:56;;;;;;;12.10;2.45;;;;;;;;;;5053468;28;20568;-71
2023/12/24 02:11:22;;;;;;;10.13;2.70;;;;;;;;;;5053410;28;20041;-71
2023/12/24 02:13:49;;;;;;;9.25;2.75;;;;;;;;;;5051523;28;20562;-71
2023/12/24 02:16:19;;;;;;;13.70;2.58;;;;;;;;;;5054051;28;20032;-71
2023/12/24 02:18:45;;;;;;;6.90;2.10;;;;;;;;;;5048098;28;20138;-71
2023/12/24 02:21:11;;;;;;;7.30;2.40;;;;;;;;;;5053870;28;20040;-71
2023/12/24 02:23:37;;;;;;;10.90;2.28;;;;;;;;;;5053229;28;20380;-71
2023/12/24 02:26:05;;;;;;;6.97;2.10;;;;;;;;;;5053250;28;20044;-71
2023/12/24 02:28:33;;;;;;;5.03;1.83;;;;;;;;;;5053108;28;20037;-71
2023/12/24 02:31:02;;;;;;;4.13;1.60;;;;;;;;;;5053391;28;20048;-71
2023/12/24 02:33:33;;;;;;;4.40;1.70;;;;;;;;;;5052608;28;20064;-71
2023/12/24 02:36:01;;;;;;;8.90;2.20;;;;;;;;;;5053728;28;20037;-71
2023/12/24 02:38:27;;;;;;;7.22;1.95;;;;;;;;;;5050378;28;20093;-71
2023/12/24 02:40:53;;;;;;;5.15;1.92;;;;;;;;;;5053311;28;20126;-71
2023/12/24 02:43:19;;;;;;;4.80;1.80;;;;;;;;;;5053147;28;20475;-71
2023/12/24 02:45:45;;;;;;;4.78;1.92;;;;;;;;;;5052909;28;20064;-71
2023/12/24 02:48:11;;;;;;;5.47;2.28;;;;;;;;;;5052255;28;20048;-72
2023/12/24 02:50:37;;;;;;;6.55;2.30;;;;;;;;;;5052758;28;20115;-71
2023/12/24 02:53:03;;;;;;;6.43;2.55;;;;;;;;;;5051609;28;20048;-71
2023/12/24 02:55:29;;;;;;;7.40;2.33;;;;;;;;;;5052118;28;20734;-71
2023/12/24 02:57:55;;;;;;;5.03;2.60;;;;;;;;;;5052768;28;20402;-71
2023/12/24 03:00:21;;;;;;;3.63;2.25;;;;;;;;;;5044051;28;20049;-71
2023/12/24 03:02:47;;;;;;;8.02;2.50;;;;;;;;;;5050726;28;20163;-71
2023/12/24 03:05:13;;;;;;;9.40;2.97;;;;;;;;;;5051801;28;20033;-71
2023/12/24 03:07:39;;;;;;;8.10;3.28;;;;;;;;;;5051774;28;20048;-71
2023/12/24 03:10:05;;;;;;;6.97;3.40;;;;;;;;;;5051485;28;20079;-71
2023/12/24 03:12:32;;;;;;;7.47;3.30;;;;;;;;;;5052807;28;20503;-71
2023/12/24 03:14:58;;;;;;;5.38;3.20;;;;;;;;;;5051891;28;20044;-71
2023/12/24 03:17:24;;;;;;;9.75;3.40;;;;;;;;;;5052613;28;20044;-72
2023/12/24 03:19:50;;;;;;;7.20;3.35;;;;;;;;;;5050083;28;20087;-72
2023/12/24 03:22:16;;;;;;;7.78;2.88;;;;;;;;;;5049769;28;20041;-72
2023/12/24 03:24:43;;;;;;;8.57;2.90;;;;;;;;;;5052864;28;20044;-72
2023/12/24 03:27:09;;;;;;;6.03;2.85;;;;;;;;;;5050501;28;20574;-72
2023/12/24 03:29:35;;;;;;;4.38;2.67;;;;;;;;;;5051944;28;20116;-72
2023/12/24 03:32:01;;;;;;;5.60;2.75;;;;;;;;;;5051623;28;20033;-72
2023/12/24 03:34:27;;;;;;;5.05;2.90;;;;;;;;;;5048749;28;20041;-72
2023/12/24 03:36:53;;;;;;;6.35;2.45;;;;;;;;;;5051370;28;20040;-72
2023/12/24 03:39:18;;;;;;;9.55;2.95;;;;;;;;;;5051017;28;20090;-72
2023/12/24 03:41:44;;;;;;;5.63;2.28;;;;;;;;;;5052467;28;20044;-72
2023/12/24 03:44:11;;;;;;;5.72;2.45;;;;;;;;;;5051990;28;20636;-72
2023/12/24 03:46:37;;;;;;;7.70;2.60;;;;;;;;;;5051408;28;20127;-72
2023/12/24 03:49:03;;;;;;;4.82;2.22;;;;;;;;;;5051869;28;20044;-72
2023/12/24 03:51:29;;;;;;;6.00;2.70;;;;;;;;;;5047415;28;20041;-72
2023/12/24 03:53:55;;;;;;;7.43;2.92;;;;;;;;;;5043329;28;20040;-72
2023/12/24 03:56:21;;;;;;;4.13;2.45;;;;;;;;;;5051374;28;20041;-72
2023/12/24 03:58:47;;;;;;;5.78;2.65;;;;;;;;;;5048032;28;20048;-72
2023/12/24 04:01:13;;;;;;;6.55;2.80;;;;;;;;;;5045140;28;20110;-72
2023/12/24 04:03:41;;;;;;;7.25;2.65;;;;;;;;;;5050839;28;20124;-72
2023/12/24 04:06:13;;;;;;;5.55;2.58;;;;;;;;;;5047715;28;20404;-72
2023/12/24 04:08:39;;;;;;;4.45;2.47;;;;;;;;;;5047273;28;20041;-72
2023/12/24 04:11:11;;;;;;;5.93;2.78;;;;;;;;;;5047005;28;20064;-72
2023/12/24 04:13:37;;;;;;;5.45;2.38;;;;;;;;;;5051729;28;20065;-72
2023/12/24 04:16:03;;;;;;;7.72;2.28;;;;;;;;;;5050698;28;20068;-72
2023/12/24 04:18:29;;;;;;;5.70;2.30;;;;;;;;;;5048884;28;20044;-72
2023/12/24 04:20:55;;;;;;;8.20;2.47;;;;;;;;;;5048837;28;20080;-72
2023/12/24 04:23:21;;;;;;;2.65;2.00;;;;;;;;;;5050796;28;20056;-72
2023/12/24 04:25:47;;;;;;;4.45;1.85;;;;;;;;;;5049808;28;20045;-72
2023/12/24 04:28:13;;;;;;;4.05;1.70;;;;;;;;;;5050969;28;20488;-72
2023/12/24 04:30:39;;;;;;;5.88;2.65;;;;;;;;;;5049231;28;20414;-72
2023/12/24 04:33:05;;;;;;;3.42;2.10;;;;;;;;;;5050197;28;20043;-72
2023/12/24 04:35:31;;;;;;;3.45;1.70;;;;;;;;;;5052523;28;20047;-72
2023/12/24 04:37:59;;;;;;;4.25;1.90;;;;;;;;;;5055497;28;20491;-72
2023/12/24 04:40:25;;;;;;;3.20;1.70;;;;;;;;;;5055176;28;20048;-72
2023/12/24 04:42:50;;;;;;;3.42;1.77;;;;;;;;;;5054327;28;20044;-71
2023/12/24 04:45:17;;;;;;;3.28;1.55;;;;;;;;;;5053834;28;20041;-72
2023/12/24 04:47:42;;;;;;;3.00;1.50;;;;;;;;;;5052583;28;20045;-71
2023/12/24 04:50:08;;;;;;;4.88;1.70;;;;;;;;;;5055468;28;20033;-71
2023/12/24 04:52:38;;;;;;;5.50;1.60;;;;;;;;;;5055250;28;20741;-72
2023/12/24 04:55:07;;;;;;;2.28;1.27;;;;;;;;;;5055495;28;20040;-72
2023/12/24 04:57:33;;;;;;;5.25;1.58;;;;;;;;;;5055356;28;20045;-72
2023/12/24 04:59:59;;;;;;;2.22;1.40;;;;;;;;;;5053689;28;20053;-72
2023/12/24 05:02:25;;;;;;;2.75;1.33;;;;;;;;;;5053945;28;20043;-72
2023/12/24 05:04:54;;;;;;;3.53;1.40;;;;;;;;;;5053378;28;20076;-72
2023/12/24 05:09:49;;;;;;;3.85;1.42;;;;;;;;;;5055541;28;20447;-67
2023/12/24 05:12:15;;;;;;;3.75;1.30;;;;;;;;;;5051447;28;20041;-66
2023/12/24 05:14:41;;;;;;;2.28;1.33;;;;;;;;;;5054700;28;20094;-66
2023/12/24 05:17:07;;;;;;;2.33;1.38;;;;;;;;;;5077241;22;20055;-72
2023/12/24 05:19:33;;;;;;;2.35;1.42;;;;;;;;;;5015891;28;20061;-71
2023/12/24 05:21:59;;;;;;;2.80;1.50;;;;;;;;;;5046329;28;20131;-72
2023/12/24 05:24:25;;;;;;;2.90;1.33;;;;;;;;;;5049302;28;20087;-71
2023/12/24 05:26:51;;;;;;;2.45;1.27;;;;;;;;;;5046820;28;20164;-71
2023/12/24 05:29:18;;;;;;;1.80;1.17;;;;;;;;;;5047439;28;20513;-71
2023/12/24 05:31:44;;;;;;;2.30;1.60;;;;;;;;;;5054266;28;20041;-72
2023/12/24 05:34:10;;;;;;;3.85;1.40;;;;;;;;;;5045428;28;20041;-72
2023/12/24 05:36:36;;;;;;;1.70;1.50;;;;;;;;;;5042230;28;20067;-71
2023/12/24 05:39:03;;;;;;;3.15;1.45;;;;;;;;;;5048809;28;20567;-72
2023/12/24 05:41:29;;;;;;;2.05;1.38;;;;;;;;;;5041395;28;20060;-72
2023/12/24 05:43:56;;;;;;;2.55;1.08;;;;;;;;;;5045568;28;20534;-71
2023/12/24 05:46:23;;;;;;;2.83;1.30;;;;;;;;;;5051877;28;20116;-71
2023/12/24 05:48:49;;;;;;;3.45;1.40;;;;;;;;;;5032657;28;20064;-72
2023/12/24 05:51:15;;;;;;;3.58;1.20;;;;;;;;;;5027683;28;20041;-72
2023/12/24 05:53:41;;;;;;;3.22;1.20;;;;;;;;;;5030635;28;20118;-71
2023/12/24 05:56:08;;;;;;;2.45;1.40;;;;;;;;;;5036600;28;20052;-71
2023/12/24 05:58:34;;;;;;;3.20;1.38;;;;;;;;;;5026608;28;20072;-71
2023/12/24 06:01:00;;;;;;;2.35;1.20;;;;;;;;;;5035845;28;20040;-71
2023/12/24 06:03:26;;;;;;;2.60;1.45;;;;;;;;;;5033912;28;20454;-71
2023/12/24 06:05:52;;;;;;;2.10;1.00;;;;;;;;;;5029610;28;20029;-71
2023/12/24 06:08:18;;;;;;;2.33;1.30;;;;;;;;;;5027331;28;20044;-71
2023/12/24 06:10:44;;;;;;;4.72;1.30;;;;;;;;;;5036714;28;20091;-71
2023/12/24 06:13:11;;;;;;;2.88;1.13;;;;;;;;;;5037058;28;20481;-71
2023/12/24 06:15:37;;;;;;;2.78;1.20;;;;;;;;;;5051056;28;20048;-71
2023/12/24 06:18:04;;;;;;;3.22;1.30;;;;;;;;;;5053624;28;20037;-71
2023/12/24 06:20:32;;;;;;;2.20;1.30;;;;;;;;;;5046658;28;20049;-71
2023/12/24 06:22:58;;;;;;;4.47;1.60;;;;;;;;;;5038029;28;20411;-71
2023/12/24 06:25:25;;;;;;;5.07;1.90;;;;;;;;;;5053940;28;20043;-71
2023/12/24 06:27:51;;;;;;;4.75;1.85;;;;;;;;;;5053448;28;20057;-71
2023/12/24 06:30:17;;;;;;;4.85;2.00;;;;;;;;;;5050217;28;20047;-71
2023/12/24 06:32:44;;;;;;;6.82;1.90;;;;;;;;;;5053361;28;20048;-71
2023/12/24 06:35:10;;;;;;;4.32;2.30;;;;;;;;;;5047857;28;20041;-71
2023/12/24 06:37:36;;;;;;;7.63;2.65;;;;;;;;;;5040275;28;20053;-71
2023/12/24 06:40:02;;;;;;;4.60;2.65;;;;;;;;;;5044946;28;20052;-72
2023/12/24 06:42:28;;;;;;;11.30;3.28;;;;;;;;;;5037551;28;20041;-72
2023/12/24 06:44:54;;;;;;;8.15;3.50;;;;;;;;;;5044902;28;20143;-72
2023/12/24 06:47:20;;;;;;;8.27;3.97;;;;;;;;;;5042751;28;20041;-72
2023/12/24 06:49:46;;;;;;;6.57;3.30;;;;;;;;;;5027321;28;20037;-71
2023/12/24 06:52:12;;;;;;;9.85;3.92;;;;;;;;;;5043220;28;20037;-71
2023/12/24 06:54:38;;;;;;;12.88;4.07;;;;;;;;;;5032980;28;20045;-71
2023/12/24 06:57:05;;;;;;;11.80;4.55;;;;;;;;;;5028028;28;20091;-71
2023/12/24 06:59:31;;;;;;;15.15;4.70;;;;;;;;;;5027502;28;20046;-71
2023/12/24 07:01:57;;;;;;;11.57;4.78;;;;;;;;;;5021175;28;20048;-71
2023/12/24 07:04:23;;;;;;;11.75;4.82;;;;;;;;;;5010920;28;20040;-71
2023/12/24 07:06:49;;;;;;;15.90;4.75;;;;;;;;;;5020548;28;20037;-71
2023/12/24 07:09:15;;;;;;;15.48;5.93;;;;;;;;;;5008197;28;20124;-71
2023/12/24 07:11:41;;;;;;;16.63;5.47;;;;;;;;;;5009625;28;21566;-71
2023/12/24 07:14:07;;;;;;;19.50;5.70;;;;;;;;;;5024478;28;20037;-71
2023/12/24 07:16:33;;;;;;;14.73;5.63;;;;;;;;;;5031693;28;20104;-71
2023/12/24 07:19:02;;;;;;;15.38;6.03;;;;;;;;;;5031272;28;20032;-71
2023/12/24 07:21:28;;;;;;;17.42;5.93;;;;;;;;;;5027074;28;20049;-71
2023/12/24 07:23:54;;;;;;;17.33;6.13;;;;;;;;;;5029129;28;20047;-71
2023/12/24 07:26:20;;;;;;;19.52;5.68;;;;;;;;;;5027663;28;20380;-71
2023/12/24 07:28:47;;;;;;;17.27;5.38;;;;;;;;;;5035277;28;20055;-72
2023/12/24 07:31:15;;;;;;;12.77;4.65;;;;;;;;;;5030705;28;20045;-72
2023/12/24 07:33:42;;;;;;;17.60;5.25;;;;;;;;;;5032280;28;20083;-71
2023/12/24 07:36:08;;;;;;;15.45;5.00;;;;;;;;;;5032891;28;20033;-71
2023/12/24 07:38:34;;;;;;;17.85;4.80;;;;;;;;;;5031005;28;20045;-71
2023/12/24 07:41:00;;;;;;;19.05;4.70;;;;;;;;;;5029279;28;20048;-71
2023/12/24 07:43:27;;;;;;;13.57;5.10;;;;;;;;;;5041046;28;20111;-71
2023/12/24 07:45:53;;;;;;;12.50;4.60;;;;;;;;;;5039068;28;20038;-71
2023/12/24 07:48:19;;;;;;;16.83;4.60;;;;;;;;;;5039426;28;20407;-71
2023/12/24 07:50:45;;;;;;;16.02;4.93;;;;;;;;;;5034107;28;20406;-71
2023/12/24 07:53:11;;;;;;;18.52;5.25;;;;;;;;;;5037070;28;20474;-71
2023/12/24 07:55:37;;;;;;;15.43;4.80;;;;;;;;;;5040677;28;20068;-71
2023/12/24 07:58:03;;;;;;;11.15;4.40;;;;;;;;;;5049570;28;20127;-71
2023/12/24 08:00:30;;;;;;;16.52;4.50;;;;;;;;;;5031179;28;20049;-72
2023/12/24 08:02:56;;;;;;;21.67;5.80;;;;;;;;;;5039013;28;20466;-72
2023/12/24 08:05:22;;;;;;;20.23;4.38;;;;;;;;;;5033965;28;20120;-72
2023/12/24 08:07:48;;;;;;;24.33;5.43;;;;;;;;;;5031770;28;20121;-72
2023/12/24 08:10:14;;;;;;;16.33;5.15;;;;;;;;;;5026291;28;20033;-72
2023/12/24 08:12:40;;;;;;;18.50;4.88;;;;;;;;;;5030154;28;20057;-72
2023/12/24 08:15:06;;;;;;;13.45;4.15;;;;;;;;;;5025178;28;20438;-72
2023/12/24 08:17:32;;;;;;;14.63;4.70;;;;;;;;;;5030805;28;20046;-72
2023/12/24 08:19:58;;;;;;;17.65;5.80;;;;;;;;;;5027703;28;20055;-72
2023/12/24 08:22:25;;;;;;;18.08;5.30;;;;;;;;;;5040912;28;20033;-72
2023/12/24 08:24:51;;;;;;;15.50;4.97;;;;;;;;;;5041370;28;20076;-72
2023/12/24 08:27:17;;;;;;;25.48;5.43;;;;;;;;;;5044752;28;20056;-72
2023/12/24 08:29:43;;;;;;;19.63;4.47;;;;;;;;;;5038664;28;20037;-72
2023/12/24 08:32:09;;;;;;;16.25;4.50;;;;;;;;;;5032986;28;20449;-72
2023/12/24 08:34:35;;;;;;;18.13;4.40;;;;;;;;;;5037747;28;20129;-72
2023/12/24 08:37:01;;;;;;;15.68;4.68;;;;;;;;;;5038727;28;20068;-71
2023/12/24 08:39:27;;;;;;;18.88;4.47;;;;;;;;;;5039032;28;20510;-71
2023/12/24 08:41:53;;;;;;;17.27;3.83;;;;;;;;;;5033799;28;20096;-71
2023/12/24 08:44:19;;;;;;;19.33;4.13;;;;;;;;;;5045627;28;20041;-71
2023/12/24 08:46:48;;;;;;;11.68;3.70;;;;;;;;;;5043273;28;20500;-71
2023/12/24 08:49:15;;;;;;;12.98;4.15;;;;;;;;;;5037936;28;20155;-71
2023/12/24 08:51:41;;;;;;;12.38;3.90;;;;;;;;;;5026120;28;20067;-71
2023/12/24 08:54:07;;;;;;;11.73;3.58;;;;;;;;;;5050918;28;20094;-71
2023/12/24 08:56:34;;;;;;;13.95;4.22;;;;;;;;;;5049147;28;20045;-71
2023/12/24 08:59:00;;;;;;;17.25;4.47;;;;;;;;;;5032362;28;20115;-71
2023/12/24 09:01:26;;;;;;;16.25;4.65;;;;;;;;;;5029663;28;20303;-71
2023/12/24 09:03:52;;;;;;;20.80;5.00;;;;;;;;;;5037376;28;20373;-71
2023/12/24 09:06:18;;;;;;;16.70;4.60;;;;;;;;;;5044831;28;20516;-71
2023/12/24 09:08:44;;;;;;;13.30;4.25;;;;;;;;;;5048032;28;20051;-71
2023/12/24 09:11:10;;;;;;;15.90;4.32;;;;;;;;;;5037161;28;20034;-71
2023/12/24 09:13:36;;;;;;;12.40;4.25;;;;;;;;;;5038294;28;20041;-71
2023/12/24 09:16:03;;;;;;;16.13;4.57;;;;;;;;;;5027150;28;20496;-72
2023/12/24 09:18:29;;;;;;;14.43;3.85;;;;;;;;;;5032550;28;20391;-72
2023/12/24 09:20:55;;;;;;;16.35;4.00;;;;;;;;;;5044808;28;20033;-72
2023/12/24 09:23:21;;;;;;;20.38;4.45;;;;;;;;;;5030972;28;20452;-72
2023/12/24 09:25:47;;;;;;;16.38;3.88;;;;;;;;;;5044111;28;20523;-72
2023/12/24 09:28:14;;;;;;;11.50;3.40;;;;;;;;;;5043316;28;20067;-72
2023/12/24 09:30:40;;;;;;;12.88;3.67;;;;;;;;;;5043339;28;20042;-72
2023/12/24 09:33:06;;;;;;;12.80;3.78;;;;;;;;;;5040767;28;20086;-72
2023/12/24 09:35:32;;;;;;;15.63;3.80;;;;;;;;;;5033729;28;20041;-72
2023/12/24 09:37:58;;;;;;;11.82;3.60;;;;;;;;;;5039845;28;20045;-72
2023/12/24 09:40:24;;;;;;;11.73;3.67;;;;;;;;;;5036289;28;20033;-72
2023/12/24 09:42:50;;;;;;;15.18;4.15;;;;;;;;;;5043650;28;20395;-72
2023/12/24 09:45:16;;;;;;;12.07;3.97;;;;;;;;;;5039172;28;20042;-72
2023/12/24 09:47:42;;;;;;;14.43;4.53;;;;;;;;;;5033151;28;20045;-72
2023/12/24 09:50:08;;;;;;;13.45;3.28;;;;;;;;;;5048293;28;20025;-72
2023/12/24 09:52:34;;;;;;;12.13;3.92;;;;;;;;;;5036113;28;20037;-73
2023/12/24 09:55:01;;;;;;;13.68;3.80;;;;;;;;;;5034169;28;20048;-73
2023/12/24 09:57:27;;;;;;;15.25;5.03;;;;;;;;;;5040483;28;20037;-73
2023/12/24 09:59:53;;;;;;;12.43;3.78;;;;;;;;;;5037446;28;20071;-73
2023/12/24 10:02:19;;;;;;;14.35;4.32;;;;;;;;;;5039811;28;20116;-73
2023/12/24 10:04:45;;;;;;;14.70;4.28;;;;;;;;;;5032936;28;20111;-72
2023/12/24 10:07:11;;;;;;;11.55;4.13;;;;;;;;;;5054150;28;20130;-73
2023/12/24 10:09:49;;;;;;;13.98;4.38;;;;;;;;;;5047419;28;20407;-73
2023/12/24 10:12:16;;;;;;;13.43;3.60;;;;;;;;;;5044607;28;20091;-73
2023/12/24 10:14:49;;;;;;;14.88;4.32;;;;;;;;;;5050678;28;20033;-73
2023/12/24 10:17:15;;;;;;;13.68;3.70;;;;;;;;;;5032760;28;20402;-73
2023/12/24 10:19:41;;;;;;;14.35;3.97;;;;;;;;;;5033704;28;20048;-72
2023/12/24 10:22:09;;;;;;;17.05;4.13;;;;;;;;;;5031851;28;20080;-72
2023/12/24 10:24:38;;;;;;;14.00;3.97;;;;;;;;;;5050443;28;20047;-72
2023/12/24 10:27:05;;;;;;;13.85;3.50;;;;;;;;;;5046214;28;20051;-72
2023/12/24 10:29:32;;;;;;;11.02;3.53;;;;;;;;;;5049996;28;20049;-72
2023/12/24 10:31:58;;;;;;;11.45;3.38;;;;;;;;;;5029812;28;20050;-73
2023/12/24 10:34:24;;;;;;;16.25;3.88;;;;;;;;;;5040677;28;20125;-73
2023/12/24 10:36:50;;;;;;;14.93;3.47;;;;;;;;;;5040494;28;20479;-73
2023/12/24 10:39:19;;;;;;;9.43;2.90;;;;;;;;;;5046455;28;20093;-73
2023/12/24 10:41:45;;;;;;;9.13;3.25;;;;;;;;;;5044489;28;20095;-73
2023/12/24 10:44:11;;;;;;;14.05;3.25;;;;;;;;;;5053727;28;20120;-73
2023/12/24 10:46:37;;;;;;;9.32;3.28;;;;;;;;;;5042135;28;20115;-73
2023/12/24 10:49:03;;;;;;;8.40;2.85;;;;;;;;;;5035895;28;20092;-73
2023/12/24 10:51:29;;;;;;;10.27;2.97;;;;;;;;;;5032247;28;20368;-72
2023/12/24 10:53:55;;;;;;;13.18;3.72;;;;;;;;;;5038172;28;20036;-72
2023/12/24 10:56:25;;;;;;;11.43;3.08;;;;;;;;;;5041725;28;20033;-72
2023/12/24 10:58:56;;;;;;;14.60;3.50;;;;;;;;;;5037378;28;20466;-72
2023/12/24 11:01:22;;;;;;;12.02;2.97;;;;;;;;;;5034042;28;20496;-71
2023/12/24 11:03:49;;;;;;;12.20;3.60;;;;;;;;;;5043961;28;20051;-71
2023/12/24 11:06:34;;;;;;;8.40;2.92;;;;;;;;;;5037924;28;20450;-72
2023/12/24 11:09:00;;;;;;;10.70;3.40;;;;;;;;;;5043403;28;20099;-72
2023/12/24 11:11:25;;;;;;;12.57;3.10;;;;;;;;;;5038759;28;20403;-72
2023/12/24 11:13:51;;;;;;;12.10;2.92;;;;;;;;;;5033507;28;20033;-72
2023/12/24 11:16:37;;;;;;;15.57;3.40;;;;;;;;;;5045348;28;20032;-72
2023/12/24 11:19:03;;;;;;;13.70;2.97;;;;;;;;;;5037147;28;20041;-72
2023/12/24 11:21:30;;;;;;;13.35;3.33;;;;;;;;;;5047033;22;20386;-67
2023/12/24 11:24:08;;;;;;;14.98;3.20;;;;;;;;;;5026438;28;20080;-65
2023/12/24 11:26:34;;;;;;;14.25;3.00;;;;;;;;;;5026133;28;20041;-65
2023/12/24 11:29:02;;;;;;;14.30;3.72;;;;;;;;;;5046308;22;20100;-66
2023/12/24 11:31:30;;;;;;;13.50;3.33;;;;;;;;;;5030498;28;20176;-64
2023/12/24 11:33:56;;;;;;;19.08;3.70;;;;;;;;;;5030381;28;20132;-64
2023/12/24 11:36:24;;;;;;;13.95;3.58;;;;;;;;;;5029253;28;20044;-65
2023/12/24 11:39:00;;;;;;;12.30;2.67;;;;;;;;;;5026585;28;20115;-65
2023/12/24 11:41:28;;;;;;;11.73;3.45;;;;;;;;;;5030365;28;20563;-65
2023/12/24 11:43:54;;;;;;;15.75;3.30;;;;;;;;;;5030964;28;20471;-65
2023/12/24 11:46:21;;;;;;;15.27;3.20;;;;;;;;;;5029410;28;20038;-65
2023/12/24 11:48:47;;;;;;;14.65;3.35;;;;;;;;;;5022385;28;20045;-66
2023/12/24 11:51:13;;;;;;;16.83;3.78;;;;;;;;;;5022673;28;20456;-66
2023/12/24 11:53:40;;;;;;;16.15;3.40;;;;;;;;;;5028636;28;20065;-66
2023/12/24 11:56:06;;;;;;;18.20;3.88;;;;;;;;;;5028785;28;20429;-66
2023/12/24 11:58:32;;;;;;;14.07;3.15;;;;;;;;;;5028295;28;20056;-66
2023/12/24 12:01:00;;;;;;;15.30;3.20;;;;;;;;;;5027178;28;20037;-65
2023/12/24 12:03:27;;;;;;;11.93;3.42;;;;;;;;;;5027580;28;20103;-66
2023/12/24 12:05:53;;;;;;;13.50;3.15;;;;;;;;;;5026768;28;20552;-66
2023/12/24 12:08:19;;;;;;;15.48;3.83;;;;;;;;;;5028928;28;20033;-66
2023/12/24 12:10:45;;;;;;;12.35;3.80;;;;;;;;;;5026154;28;20044;-66
2023/12/24 12:13:11;;;;;;;16.67;3.85;;;;;;;;;;5003632;28;20168;-66
2023/12/24 12:15:37;;;;;;;12.10;3.65;;;;;;;;;;5017725;28;20044;-66
2023/12/24 12:18:03;;;;;;;17.88;3.75;;;;;;;;;;5029196;28;20052;-66
2023/12/24 12:20:30;;;;;;;13.80;3.50;;;;;;;;;;5025881;28;20041;-66
2023/12/24 12:22:56;;;;;;;11.00;3.50;;;;;;;;;;5030409;28;20041;-66
2023/12/24 12:25:22;;;;;;;18.33;3.55;;;;;;;;;;5027030;28;20057;-65
2023/12/24 12:27:48;;;;;;;11.40;3.60;;;;;;;;;;5028857;28;20398;-66
2023/12/24 12:30:14;;;;;;;14.68;3.10;;;;;;;;;;5027134;28;20053;-66
2023/12/24 12:32:40;;;;;;;19.95;4.00;;;;;;;;;;5025925;28;20033;-66
2023/12/24 12:35:06;;;;;;;16.80;4.05;;;;;;;;;;5028991;28;20524;-66
2023/12/24 12:37:33;;;;;;;12.98;3.30;;;;;;;;;;5026153;28;20041;-66
2023/12/24 12:39:59;;;;;;;12.00;3.20;;;;;;;;;;5024637;28;20045;-66
2023/12/24 12:42:25;;;;;;;11.40;3.50;;;;;;;;;;5026397;28;20494;-66
2023/12/24 12:44:51;;;;;;;14.32;3.63;;;;;;;;;;5025023;28;20042;-66
2023/12/24 12:47:17;;;;;;;11.57;3.13;;;;;;;;;;5024489;28;20046;-66
2023/12/24 12:49:43;;;;;;;14.43;3.47;;;;;;;;;;5024734;28;20095;-67
2023/12/24 12:52:10;;;;;;;11.77;2.95;;;;;;;;;;5029589;28;20410;-67
2023/12/24 12:54:36;;;;;;;13.90;3.20;;;;;;;;;;5030831;28;20509;-67
2023/12/24 12:57:02;;;;;;;10.52;2.42;;;;;;;;;;5026380;28;20059;-67
2023/12/24 12:59:28;;;;;;;11.30;2.72;;;;;;;;;;5033193;28;20148;-66
2023/12/24 13:01:55;;;;;;;6.78;2.40;;;;;;;;;;5029456;28;20052;-66
2023/12/24 13:04:22;;;;;;;8.30;2.50;;;;;;;;;;5031680;28;20041;-66
2023/12/24 13:06:51;;;;;;;8.60;2.75;;;;;;;;;;5032965;28;20037;-66
2023/12/24 13:09:18;;;;;;;10.15;2.72;;;;;;;;;;5030707;28;20050;-66
2023/12/24 13:11:44;;;;;;;7.22;2.15;;;;;;;;;;5033634;28;20524;-67
2023/12/24 13:14:10;;;;;;;12.80;3.00;;;;;;;;;;5034547;28;20033;-66
2023/12/24 13:16:36;;;;;;;9.55;2.85;;;;;;;;;;5034527;28;20448;-66
2023/12/24 13:19:18;;;;;;;11.27;3.22;;;;;;;;;;5027477;28;20091;-66
2023/12/24 13:21:46;;;;;;;10.90;3.13;;;;;;;;;;5031780;28;20038;-66
2023/12/24 13:24:12;;;;;;;11.00;3.65;;;;;;;;;;5028237;28;20034;-66
2023/12/24 13:26:38;;;;;;;14.75;3.65;;;;;;;;;;5031617;28;20409;-66
2023/12/24 13:29:05;;;;;;;15.13;4.22;;;;;;;;;;5033142;28;20493;-67
2023/12/24 13:31:31;;;;;;;12.55;3.50;;;;;;;;;;5005879;28;20121;-67
2023/12/24 13:33:57;;;;;;;13.52;3.40;;;;;;;;;;5027684;28;20037;-67
2023/12/24 13:36:23;;;;;;;12.57;3.88;;;;;;;;;;5027706;28;20037;-67
2023/12/24 13:38:49;;;;;;;12.77;4.00;;;;;;;;;;5028769;28;20048;-67
2023/12/24 13:41:15;;;;;;;14.05;4.57;;;;;;;;;;5024621;28;20409;-67
2023/12/24 13:43:41;;;;;;;15.73;4.70;;;;;;;;;;5027426;28;20038;-68
2023/12/24 13:46:08;;;;;;;18.08;4.90;;;;;;;;;;5026729;28;20033;-67
2023/12/24 13:48:34;;;;;;;11.90;3.90;;;;;;;;;;5024650;28;20045;-67
2023/12/24 13:51:00;;;;;;;15.95;4.82;;;;;;;;;;5030391;28;20041;-66
2023/12/24 13:53:26;;;;;;;17.60;4.60;;;;;;;;;;5030770;28;20045;-66
2023/12/24 13:55:52;;;;;;;17.52;4.53;;;;;;;;;;5029009;28;20486;-66
2023/12/24 13:58:18;;;;;;;11.45;3.42;;;;;;;;;;5019969;28;20092;-66
2023/12/24 14:00:45;;;;;;;15.90;3.92;;;;;;;;;;5025345;28;20124;-66
2023/12/24 14:03:11;;;;;;;11.60;3.65;;;;;;;;;;5011650;28;20044;-66
2023/12/24 14:05:38;;;;;;;13.82;3.03;;;;;;;;;;5010334;28;20056;-66
2023/12/24 14:08:04;;;;;;;11.45;3.10;;;;;;;;;;5023838;28;20050;-66
2023/12/24 14:10:30;;;;;;;10.80;3.08;;;;;;;;;;5027421;28;20103;-65
2023/12/24 14:12:56;;;;;;;7.72;2.65;;;;;;;;;;5020774;28;20046;-65
2023/12/24 14:15:22;;;;;;;10.90;3.05;;;;;;;;;;5026064;28;20490;-66
2023/12/24 14:17:48;;;;;;;7.95;2.30;;;;;;;;;;5027269;28;20099;-66
2023/12/24 14:20:16;;;;;;;9.23;2.60;;;;;;;;;;5032565;28;20128;-66
2023/12/24 14:22:43;;;;;;;7.80;2.58;;;;;;;;;;5014218;28;20091;-66
2023/12/24 14:25:09;;;;;;;12.80;2.80;;;;;;;;;;5027921;28;20513;-66
2023/12/24 14:27:39;;;;;;;10.68;2.38;;;;;;;;;;5024180;28;20045;-66
2023/12/24 14:30:09;;;;;;;5.22;1.95;;;;;;;;;;5021852;28;20072;-65
2023/12/24 14:32:35;;;;;;;8.98;2.03;;;;;;;;;;5028086;28;20042;-65
2023/12/24 14:35:01;;;;;;;6.50;2.38;;;;;;;;;;5027652;28;20116;-65